createdAt,value
2023-05-16T00:00:40.863Z,46.75
2023-05-16T00:03:08.082Z,47.05
2023-05-16T00:08:13.163Z,47.32
2023-05-16T00:10:40.197Z,47.34
2023-05-16T00:13:07.385Z,47.71
2023-05-16T00:15:34.810Z,47.68
2023-05-16T00:18:01.860Z,47.78
2023-05-16T00:20:29.276Z,48.03
2023-05-16T00:22:56.582Z,48.16
2023-05-16T00:25:23.570Z,48.36
2023-05-16T00:27:50.514Z,48.46
2023-05-16T00:30:17.592Z,48.84
2023-05-16T00:32:44.851Z,48.81
2023-05-16T00:35:12.570Z,49.00
2023-05-16T00:37:39.712Z,49.24
2023-05-16T00:40:07.577Z,49.31
2023-05-16T00:42:37.163Z,49.27
2023-05-16T00:45:04.897Z,49.53
2023-05-16T00:47:32.380Z,49.47
2023-05-16T00:49:59.630Z,49.61
2023-05-16T00:52:26.721Z,50.04
2023-05-16T00:54:53.716Z,50.12
2023-05-16T00:57:20.875Z,50.31
2023-05-16T00:59:47.888Z,50.55
2023-05-16T01:02:14.946Z,50.78
2023-05-16T01:04:43.035Z,51.03
2023-05-16T01:07:10.164Z,50.99
2023-05-16T01:09:37.455Z,51.06
2023-05-16T01:12:49.446Z,51.02
2023-05-16T01:15:25.012Z,51.28
2023-05-16T01:18:04.659Z,51.50
2023-05-16T01:20:52.874Z,51.57
2023-05-16T01:23:55.003Z,52.00
2023-05-16T01:26:26.716Z,52.01
2023-05-16T01:28:53.898Z,52.24
2023-05-16T01:31:21.777Z,52.39
2023-05-16T01:33:49.002Z,52.46
2023-05-16T01:36:53.724Z,52.47
2023-05-16T01:39:44.552Z,52.57
2023-05-16T01:42:15.197Z,53.07
2023-05-16T01:44:45.900Z,53.28
2023-05-16T01:47:15.116Z,53.22
2023-05-16T01:50:00.418Z,53.42
2023-05-16T01:52:38.194Z,53.53
2023-05-16T01:55:05.980Z,53.72
2023-05-16T01:57:33.170Z,53.67
2023-05-16T02:00:00.570Z,53.78
2023-05-16T02:02:27.765Z,53.97
2023-05-16T02:04:54.748Z,54.17
2023-05-16T02:07:21.763Z,54.14
2023-05-16T02:09:48.857Z,54.52
2023-05-16T02:12:16.393Z,54.44
2023-05-16T02:14:43.336Z,54.60
2023-05-16T02:17:10.321Z,54.59
2023-05-16T02:19:37.280Z,54.66
2023-05-16T02:22:04.327Z,54.83
2023-05-16T02:24:33.338Z,55.09
2023-05-16T02:27:01.902Z,55.28
2023-05-16T02:29:29.015Z,55.13
2023-05-16T02:31:56.061Z,55.15
2023-05-16T02:34:23.092Z,55.29
2023-05-16T02:36:50.115Z,55.46
2023-05-16T02:39:17.065Z,55.50
2023-05-16T02:41:43.996Z,55.47
2023-05-16T02:44:11.214Z,55.43
2023-05-16T02:46:38.224Z,55.24
2023-05-16T02:49:05.817Z,54.98
2023-05-16T02:51:32.786Z,54.97
2023-05-16T02:54:01.298Z,54.95
2023-05-16T02:56:28.343Z,54.84
2023-05-16T02:58:55.748Z,54.41
2023-05-16T03:01:23.055Z,54.39
2023-05-16T03:03:50.240Z,54.16
2023-05-16T03:06:17.464Z,54.02
2023-05-16T03:08:44.379Z,53.72
2023-05-16T03:11:11.426Z,53.70
2023-05-16T03:13:41.863Z,53.54
2023-05-16T03:16:09.020Z,53.07
2023-05-16T03:18:36.078Z,53.01
2023-05-16T03:21:04.364Z,52.66
2023-05-16T03:23:31.308Z,52.36
2023-05-16T03:25:58.332Z,52.26
2023-05-16T03:28:25.429Z,51.92
2023-05-16T03:30:55.168Z,51.45
2023-05-16T03:33:22.230Z,51.38
2023-05-16T03:35:49.191Z,51.03
2023-05-16T03:38:16.107Z,50.82
2023-05-16T03:40:44.318Z,50.41
2023-05-16T03:43:11.266Z,50.26
2023-05-16T03:45:38.438Z,50.10
2023-05-16T03:48:05.601Z,50.24
2023-05-16T03:50:32.702Z,50.10
2023-05-16T03:52:59.667Z,50.03
2023-05-16T03:55:27.089Z,50.15
2023-05-16T03:57:54.335Z,49.99
2023-05-16T04:00:21.439Z,49.89
2023-05-16T04:02:48.636Z,49.50
2023-05-16T04:05:15.959Z,49.35
2023-05-16T04:07:43.003Z,49.50
2023-05-16T04:10:10.651Z,49.53
2023-05-16T04:12:37.748Z,49.77
2023-05-16T04:15:05.764Z,49.67
2023-05-16T04:17:33.189Z,49.74
2023-05-16T04:20:01.007Z,49.91
2023-05-16T04:22:27.960Z,49.91
2023-05-16T04:24:55.252Z,49.97
2023-05-16T04:27:22.239Z,50.17
2023-05-16T04:29:49.423Z,50.17
2023-05-16T04:32:17.501Z,50.44
2023-05-16T04:34:46.972Z,50.45
2023-05-16T04:37:14.722Z,50.52
2023-05-16T04:39:42.851Z,50.75
2023-05-16T04:42:10.069Z,50.69
2023-05-16T04:44:37.793Z,50.90
2023-05-16T04:47:05.302Z,50.64
2023-05-16T04:49:32.213Z,50.84
2023-05-16T04:51:59.721Z,50.85
2023-05-16T04:54:27.227Z,51.14
2023-05-16T04:56:54.846Z,51.45
2023-05-16T04:59:22.070Z,51.23
2023-05-16T05:01:49.145Z,51.23
2023-05-16T05:04:17.885Z,51.64
2023-05-16T05:06:45.027Z,51.53
2023-05-16T05:09:12.082Z,51.37
2023-05-16T05:11:39.171Z,51.08
2023-05-16T05:14:06.178Z,50.68
2023-05-16T05:16:33.438Z,50.57
2023-05-16T05:19:00.884Z,50.50
2023-05-16T05:21:27.943Z,50.45
2023-05-16T05:23:55.072Z,50.24
2023-05-16T05:26:22.397Z,50.26
2023-05-16T05:29:00.999Z,50.26
2023-05-16T05:31:31.322Z,50.23
2023-05-16T05:33:58.363Z,49.90
2023-05-16T05:36:25.361Z,49.75
2023-05-16T05:38:52.397Z,49.25
2023-05-16T05:41:19.399Z,48.81
2023-05-16T05:43:46.352Z,48.67
2023-05-16T05:46:13.478Z,48.33
2023-05-16T05:48:40.670Z,48.04
2023-05-16T05:51:07.689Z,47.75
2023-05-16T05:53:34.814Z,47.60
2023-05-16T05:56:01.719Z,47.70
2023-05-16T05:58:28.942Z,48.06
2023-05-16T06:00:56.159Z,48.75
2023-05-16T06:03:23.259Z,49.39
2023-05-16T06:05:50.348Z,49.83
2023-05-16T06:08:17.294Z,50.54
2023-05-16T06:10:44.312Z,51.35
2023-05-16T06:13:11.526Z,51.57
2023-05-16T06:15:38.702Z,51.90
2023-05-16T06:18:05.873Z,51.99
2023-05-16T06:20:32.928Z,52.23
2023-05-16T06:22:59.874Z,52.76
2023-05-16T06:25:27.075Z,53.21
2023-05-16T06:27:54.291Z,53.34
2023-05-16T06:30:21.419Z,53.71
2023-05-16T06:32:48.618Z,54.44
2023-05-16T06:35:15.747Z,55.34
2023-05-16T06:37:43.068Z,54.73
2023-05-16T06:40:11.432Z,54.04
2023-05-16T06:42:41.740Z,53.22
2023-05-16T06:45:09.543Z,52.99
2023-05-16T06:47:36.748Z,53.09
2023-05-16T06:50:04.984Z,52.96
2023-05-16T06:52:32.198Z,53.12
2023-05-16T06:54:59.322Z,53.54
2023-05-16T06:57:26.350Z,53.52
2023-05-16T06:59:53.325Z,53.48
2023-05-16T07:02:20.734Z,53.46
2023-05-16T07:04:48.342Z,53.19
2023-05-16T07:07:15.823Z,53.29
2023-05-16T07:09:43.425Z,52.98
2023-05-16T07:12:10.484Z,52.84
2023-05-16T07:14:37.630Z,52.89
2023-05-16T07:17:05.058Z,53.01
2023-05-16T07:19:32.223Z,52.41
2023-05-16T07:21:59.364Z,52.05
2023-05-16T07:24:26.488Z,52.08
2023-05-16T07:26:53.533Z,51.76
2023-05-16T07:29:20.799Z,51.47
2023-05-16T07:31:47.880Z,51.28
2023-05-16T07:34:15.061Z,50.86
2023-05-16T07:36:42.289Z,50.53
2023-05-16T07:39:09.350Z,50.34
2023-05-16T07:41:36.354Z,49.97
2023-05-16T07:44:03.460Z,49.78
2023-05-16T07:46:30.634Z,49.04
2023-05-16T07:48:57.852Z,48.24
2023-05-16T07:51:24.854Z,48.07
2023-05-16T07:53:52.135Z,47.71
2023-05-16T07:56:19.235Z,47.20
2023-05-16T07:58:46.383Z,47.01
2023-05-16T08:01:13.542Z,46.87
2023-05-16T08:03:40.627Z,46.95
2023-05-16T08:06:07.994Z,46.70
2023-05-16T08:08:35.527Z,46.65
2023-05-16T08:11:02.627Z,46.37
2023-05-16T08:13:29.871Z,46.31
2023-05-16T08:15:56.970Z,46.52
2023-05-16T08:18:24.336Z,46.64
2023-05-16T08:20:51.750Z,46.78
2023-05-16T08:23:19.134Z,47.09
2023-05-16T08:25:46.767Z,47.27
2023-05-16T08:28:14.115Z,47.58
2023-05-16T08:30:42.785Z,47.88
2023-05-16T08:33:10.752Z,48.20
2023-05-16T08:35:38.010Z,48.61
2023-05-16T08:38:05.220Z,49.07
2023-05-16T08:40:32.550Z,49.79
2023-05-16T08:42:59.723Z,51.71
2023-05-16T08:45:27.241Z,54.70
2023-05-16T08:47:57.767Z,55.92
2023-05-16T08:50:25.621Z,56.31
2023-05-16T08:52:53.321Z,58.13
2023-05-16T08:55:21.786Z,59.86
2023-05-16T08:57:51.198Z,63.12
2023-05-16T09:00:19.571Z,65.35
2023-05-16T09:02:46.809Z,67.07
2023-05-16T09:05:15.148Z,68.32
2023-05-16T09:07:42.731Z,68.46
2023-05-16T09:10:11.091Z,67.04
2023-05-16T09:12:39.816Z,65.65
2023-05-16T09:15:08.470Z,66.63
2023-05-16T09:17:42.346Z,67.29
2023-05-16T09:20:13.706Z,66.39
2023-05-16T09:22:41.333Z,64.50
2023-05-16T09:25:18.361Z,63.34
2023-05-16T09:27:56.090Z,61.75
2023-05-16T09:30:26.563Z,61.43
2023-05-16T09:32:54.018Z,61.37
2023-05-16T09:35:35.202Z,61.28
2023-05-16T09:38:14.916Z,60.45
2023-05-16T09:40:42.638Z,60.57
2023-05-16T09:43:10.083Z,59.02
2023-05-16T09:45:37.341Z,58.58
2023-05-16T09:48:09.237Z,58.00
2023-05-16T09:50:37.931Z,58.08
2023-05-16T09:53:05.438Z,57.70
2023-05-16T09:55:32.869Z,57.02
2023-05-16T09:58:00.032Z,57.18
2023-05-16T10:00:31.690Z,57.29
2023-05-16T10:03:00.940Z,56.97
2023-05-16T10:05:31.336Z,56.31
2023-05-16T10:07:58.613Z,56.20
2023-05-16T10:10:25.961Z,56.02
2023-05-16T10:12:53.174Z,55.38
2023-05-16T10:15:20.609Z,55.41
2023-05-16T10:17:51.941Z,55.16
2023-05-16T10:20:19.165Z,54.06
2023-05-16T10:22:46.288Z,53.59
2023-05-16T10:25:16.283Z,52.96
2023-05-16T10:27:43.589Z,52.33
2023-05-16T10:30:11.468Z,53.00
2023-05-16T10:32:41.236Z,53.07
2023-05-16T10:35:10.140Z,53.33
2023-05-16T10:37:37.367Z,53.50
2023-05-16T10:40:06.545Z,52.72
2023-05-16T10:42:34.012Z,52.82
2023-05-16T10:45:17.422Z,52.30
2023-05-16T10:47:57.407Z,52.40
2023-05-16T10:50:41.649Z,52.87
2023-05-16T10:53:24.037Z,53.24
2023-05-16T10:55:51.765Z,53.15
2023-05-16T10:58:40.035Z,52.72
2023-05-16T11:01:30.431Z,50.91
2023-05-16T11:03:57.927Z,49.02
2023-05-16T11:06:29.094Z,48.51
2023-05-16T11:09:11.572Z,48.66
2023-05-16T11:11:49.374Z,48.68
2023-05-16T11:14:26.242Z,48.66
2023-05-16T11:17:06.697Z,48.66
2023-05-16T11:19:45.417Z,48.60
2023-05-16T11:22:32.714Z,48.59
2023-05-16T11:25:04.547Z,48.08
2023-05-16T11:27:32.261Z,48.11
2023-05-16T11:30:06.579Z,47.93
2023-05-16T11:32:34.994Z,47.81
2023-05-16T11:35:05.443Z,47.83
2023-05-16T11:37:32.654Z,47.80
2023-05-16T11:40:04.564Z,47.77
2023-05-16T11:42:34.560Z,47.49
2023-05-16T11:45:09.130Z,47.57
2023-05-16T11:47:40.210Z,47.59
2023-05-16T11:50:10.202Z,47.74
2023-05-16T11:52:37.687Z,47.94
2023-05-16T11:55:11.044Z,48.14
2023-05-16T11:57:44.021Z,48.18
2023-05-16T12:00:16.532Z,48.23
2023-05-16T12:02:45.314Z,47.90
2023-05-16T12:05:13.038Z,47.56
2023-05-16T12:07:41.078Z,47.03
2023-05-16T12:10:09.649Z,46.98
2023-05-16T12:12:37.347Z,46.65
2023-05-16T12:15:06.779Z,46.12
2023-05-16T12:17:36.871Z,46.08
2023-05-16T12:20:07.968Z,46.45
2023-05-16T12:22:35.564Z,46.45
2023-05-16T12:25:31.115Z,46.42
2023-05-16T12:27:59.825Z,46.63
2023-05-16T12:30:28.041Z,46.54
2023-05-16T12:33:05.063Z,46.88
2023-05-16T12:35:34.646Z,46.87
2023-05-16T12:38:06.006Z,46.92
2023-05-16T12:40:33.461Z,47.25
2023-05-16T12:43:00.880Z,47.42
2023-05-16T12:45:28.317Z,47.65
2023-05-16T12:47:55.930Z,47.61
2023-05-16T12:50:23.291Z,47.51
2023-05-16T12:52:55.022Z,47.67
2023-05-16T12:55:22.613Z,47.90
2023-05-16T12:57:50.244Z,47.94
2023-05-16T13:00:19.271Z,48.28
2023-05-16T13:02:47.763Z,48.33
2023-05-16T13:05:15.360Z,48.34
2023-05-16T13:07:42.996Z,48.42
2023-05-16T13:10:11.480Z,48.73
2023-05-16T13:12:41.610Z,49.25
2023-05-16T13:15:09.907Z,49.89
2023-05-16T13:17:37.869Z,50.00
2023-05-16T13:20:10.615Z,50.44
2023-05-16T13:22:37.951Z,50.87
2023-05-16T13:25:06.496Z,51.47
2023-05-16T13:27:34.352Z,52.63
2023-05-16T13:30:01.721Z,53.69
2023-05-16T13:32:29.112Z,54.50
2023-05-16T13:34:56.972Z,54.66
2023-05-16T13:37:27.031Z,53.79
2023-05-16T13:39:57.188Z,53.75
2023-05-16T13:42:24.516Z,53.91
2023-05-16T13:44:51.776Z,53.74
2023-05-16T13:47:19.160Z,53.69
2023-05-16T13:49:46.373Z,53.63
2023-05-16T13:52:13.683Z,53.06
2023-05-16T13:54:41.736Z,52.63
2023-05-16T13:57:09.045Z,52.63
2023-05-16T14:02:06.935Z,52.95
2023-05-16T14:04:34.369Z,52.78
2023-05-16T14:07:01.817Z,52.50
2023-05-16T14:09:29.243Z,52.36
2023-05-16T14:11:56.741Z,52.31
2023-05-16T14:14:24.078Z,52.37
2023-05-16T14:16:51.830Z,51.94
2023-05-16T14:19:19.879Z,51.77
2023-05-16T14:21:47.260Z,51.49
2023-05-16T14:24:14.596Z,51.49
2023-05-16T14:26:41.948Z,51.04
2023-05-16T14:29:13.155Z,50.47
2023-05-16T14:31:41.224Z,50.19
2023-05-16T14:34:08.383Z,50.22
2023-05-16T14:36:35.757Z,50.12
2023-05-16T14:39:03.181Z,49.35
2023-05-16T14:41:30.289Z,49.29
2023-05-16T14:43:57.431Z,49.23
2023-05-16T14:46:24.964Z,49.11
2023-05-16T14:48:52.790Z,48.72
2023-05-16T14:51:21.430Z,48.31
2023-05-16T14:53:48.693Z,48.62
2023-05-16T14:56:16.115Z,48.81
2023-05-16T14:58:43.538Z,48.78
2023-05-16T15:01:11.228Z,48.82
2023-05-16T15:03:53.571Z,48.74
2023-05-16T15:06:22.525Z,48.36
2023-05-16T15:08:49.947Z,48.42
2023-05-16T15:11:17.552Z,48.31
2023-05-16T15:13:46.637Z,48.18
2023-05-16T15:16:14.229Z,48.33
2023-05-16T15:18:42.084Z,48.30
2023-05-16T15:21:09.524Z,48.31
2023-05-16T15:23:36.916Z,48.21
2023-05-16T15:26:04.650Z,48.06
2023-05-16T15:28:31.871Z,48.23
2023-05-16T15:30:59.193Z,48.25
2023-05-16T15:33:26.497Z,48.20
2023-05-16T15:35:54.122Z,48.30
2023-05-16T15:38:21.462Z,48.25
2023-05-16T15:40:52.765Z,48.10
2023-05-16T15:43:25.388Z,48.38
2023-05-16T15:45:52.850Z,48.42
2023-05-16T15:48:20.639Z,48.51
2023-05-16T15:50:47.916Z,48.57
2023-05-16T15:53:15.190Z,48.59
2023-05-16T15:55:42.595Z,48.82
2023-05-16T15:58:09.887Z,48.68
2023-05-16T16:00:37.193Z,48.49
2023-05-16T16:03:04.593Z,48.44
2023-05-16T16:05:32.050Z,48.77
2023-05-16T16:07:59.405Z,48.81
2023-05-16T16:10:27.272Z,48.72
2023-05-16T16:13:04.170Z,48.82
2023-05-16T16:15:33.376Z,48.79
2023-05-16T16:18:01.098Z,48.95
2023-05-16T16:20:28.679Z,49.02
2023-05-16T16:22:55.925Z,48.99
2023-05-16T16:25:23.223Z,48.99
2023-05-16T16:27:51.524Z,49.13
2023-05-16T16:30:18.852Z,49.03
2023-05-16T16:32:48.936Z,49.17
2023-05-16T16:35:16.595Z,49.10
2023-05-16T16:37:54.596Z,49.18
2023-05-16T16:40:31.122Z,49.08
2023-05-16T16:42:58.973Z,49.28
2023-05-16T16:45:27.397Z,49.24
2023-05-16T16:47:55.105Z,49.40
2023-05-16T16:50:22.285Z,49.51
2023-05-16T16:52:49.535Z,49.71
2023-05-16T16:55:16.934Z,49.69
2023-05-16T16:57:44.119Z,49.63
2023-05-16T17:00:11.942Z,49.73
2023-05-16T17:02:39.490Z,49.81
2023-05-16T17:05:07.048Z,50.03
2023-05-16T17:07:34.291Z,50.31
2023-05-16T17:10:04.067Z,50.25
2023-05-16T17:12:34.616Z,50.41
2023-05-16T17:15:02.323Z,50.63
2023-05-16T17:17:29.731Z,50.60
2023-05-16T17:19:57.048Z,50.70
2023-05-16T17:22:24.208Z,50.85
2023-05-16T17:24:51.540Z,50.97
2023-05-16T17:27:18.720Z,51.14
2023-05-16T17:29:47.436Z,51.25
2023-05-16T17:32:14.676Z,51.31
2023-05-16T17:34:41.950Z,51.32
2023-05-16T17:37:10.813Z,51.57
2023-05-16T17:39:38.998Z,51.65
2023-05-16T17:42:06.368Z,51.99
2023-05-16T17:44:33.624Z,52.23
2023-05-16T17:47:00.772Z,52.32
2023-05-16T17:49:27.981Z,52.42
2023-05-16T17:51:56.635Z,52.56
2023-05-16T17:54:24.327Z,52.78
2023-05-16T17:56:51.452Z,52.88
2023-05-16T17:59:19.485Z,53.01
2023-05-16T18:01:47.696Z,53.07
2023-05-16T18:04:15.049Z,53.22
2023-05-16T18:06:42.584Z,53.25
2023-05-16T18:09:10.560Z,53.33
2023-05-16T18:11:39.257Z,53.33
2023-05-16T18:14:08.976Z,53.63
2023-05-16T18:16:36.279Z,53.53
2023-05-16T18:19:05.119Z,53.78
2023-05-16T18:21:32.542Z,53.89
2023-05-16T18:24:00.094Z,53.98
2023-05-16T18:26:30.804Z,54.14
2023-05-16T18:28:59.374Z,54.61
2023-05-16T18:31:26.676Z,54.38
2023-05-16T18:33:53.820Z,54.48
2023-05-16T18:36:21.120Z,54.55
2023-05-16T18:38:48.304Z,54.70
2023-05-16T18:41:16.805Z,54.65
2023-05-16T18:43:44.159Z,55.04
2023-05-16T18:46:11.882Z,55.10
2023-05-16T18:48:39.316Z,55.31
2023-05-16T18:51:06.785Z,55.68
2023-05-16T18:53:34.152Z,55.91
2023-05-16T18:56:01.748Z,56.07
2023-05-16T18:58:28.889Z,56.34
2023-05-16T19:00:56.498Z,56.45
2023-05-16T19:03:23.928Z,56.66
2023-05-16T19:05:51.435Z,56.58
2023-05-16T19:08:18.895Z,56.83
2023-05-16T19:10:47.858Z,56.93
2023-05-16T19:13:15.153Z,57.03
2023-05-16T19:15:44.828Z,57.26
2023-05-16T19:18:13.198Z,57.29
2023-05-16T19:20:40.955Z,57.53
2023-05-16T19:23:08.630Z,57.49
2023-05-16T19:25:35.764Z,57.65
2023-05-16T19:28:03.657Z,57.90
2023-05-16T19:30:30.984Z,58.14
2023-05-16T19:32:58.240Z,58.24
2023-05-16T19:35:25.620Z,58.41
2023-05-16T19:37:53.283Z,58.59
2023-05-16T19:40:20.497Z,58.63
2023-05-16T19:42:47.870Z,58.87
2023-05-16T19:45:16.569Z,59.25
2023-05-16T19:47:44.006Z,59.25
2023-05-16T19:50:11.223Z,59.17
2023-05-16T19:52:38.597Z,59.33
2023-05-16T19:55:07.900Z,59.43
2023-05-16T19:57:35.127Z,59.83
2023-05-16T20:00:02.833Z,59.88
2023-05-16T20:02:39.770Z,59.86
2023-05-16T20:05:07.590Z,60.01
2023-05-16T20:07:34.953Z,60.28
2023-05-16T20:10:04.161Z,60.37
2023-05-16T20:12:31.640Z,60.35
2023-05-16T20:14:58.889Z,60.54
2023-05-16T20:17:28.806Z,60.63
2023-05-16T20:19:56.211Z,60.60
2023-05-16T20:22:23.311Z,60.76
2023-05-16T20:24:50.463Z,60.79
2023-05-16T20:27:17.704Z,61.07
2023-05-16T20:29:44.893Z,61.13
2023-05-16T20:32:12.210Z,61.17
2023-05-16T20:34:41.536Z,61.14
2023-05-16T20:37:09.082Z,61.42
2023-05-16T20:39:36.442Z,61.57
2023-05-16T20:42:04.299Z,61.71
2023-05-16T20:44:33.786Z,61.78
2023-05-16T20:47:00.902Z,61.90
2023-05-16T20:49:28.023Z,62.04
2023-05-16T20:51:55.087Z,62.12
2023-05-16T20:54:22.297Z,62.33
2023-05-16T20:56:49.466Z,62.37
2023-05-16T20:59:16.634Z,62.72
2023-05-16T21:01:43.891Z,62.78
2023-05-16T21:04:11.247Z,62.93
2023-05-16T21:06:38.355Z,63.27
2023-05-16T21:09:05.995Z,63.47
2023-05-16T21:11:34.130Z,63.55
2023-05-16T21:14:01.400Z,63.51
2023-05-16T21:16:30.213Z,63.78
2023-05-16T21:18:57.638Z,63.83
2023-05-16T21:21:24.901Z,63.88
2023-05-16T21:23:52.392Z,63.90
2023-05-16T21:26:19.742Z,63.99
2023-05-16T21:31:18.340Z,64.00
2023-05-16T21:33:45.724Z,64.04
2023-05-16T21:36:12.999Z,64.20
2023-05-16T21:38:40.301Z,64.31
2023-05-16T21:41:07.414Z,64.22
2023-05-16T21:43:34.488Z,64.29
2023-05-16T21:46:01.539Z,64.19
2023-05-16T21:48:28.640Z,64.32
2023-05-16T21:50:55.830Z,64.22
2023-05-16T21:53:25.206Z,64.28
2023-05-16T21:55:52.348Z,64.33
2023-05-16T21:58:19.429Z,64.37
2023-05-16T22:00:46.487Z,64.43
2023-05-16T22:03:13.653Z,64.50
2023-05-16T22:05:40.627Z,64.57
2023-05-16T22:08:08.203Z,64.44
2023-05-16T22:10:35.263Z,64.32
2023-05-16T22:13:02.285Z,64.35
2023-05-16T22:15:29.605Z,64.44
2023-05-16T22:17:57.762Z,64.49
2023-05-16T22:20:26.680Z,64.54
2023-05-16T22:22:53.839Z,64.85
2023-05-16T22:25:20.975Z,64.88
2023-05-16T22:27:47.950Z,64.97
2023-05-16T22:30:15.059Z,65.05
2023-05-16T22:32:42.381Z,65.06
2023-05-16T22:35:09.652Z,65.40
2023-05-16T22:37:36.631Z,65.61
2023-05-16T22:40:04.049Z,65.67
2023-05-16T22:42:31.618Z,65.80
2023-05-16T22:44:58.666Z,65.81
2023-05-16T22:47:25.927Z,66.05
2023-05-16T22:49:53.191Z,66.07
2023-05-16T22:52:22.141Z,66.35
2023-05-16T22:54:49.172Z,66.35
2023-05-16T22:57:16.311Z,66.62
2023-05-16T22:59:43.296Z,66.70
2023-05-16T23:02:10.463Z,67.13
2023-05-16T23:04:37.510Z,67.26
2023-05-16T23:07:04.713Z,67.12
2023-05-16T23:09:31.776Z,67.42
2023-05-16T23:11:59.322Z,67.41
2023-05-16T23:14:26.513Z,67.48
2023-05-16T23:16:53.537Z,67.49
2023-05-16T23:19:20.673Z,67.37
2023-05-16T23:21:47.796Z,67.34
2023-05-16T23:24:14.873Z,67.33
2023-05-16T23:26:41.801Z,67.38
2023-05-16T23:29:08.737Z,67.26
2023-05-16T23:31:35.761Z,67.46
2023-05-16T23:34:02.854Z,67.29
2023-05-16T23:36:29.900Z,67.58
2023-05-16T23:38:56.967Z,67.37
2023-05-16T23:41:23.979Z,67.50
2023-05-16T23:43:51.122Z,67.46
2023-05-16T23:46:18.190Z,67.24
2023-05-16T23:48:46.076Z,67.15
2023-05-16T23:51:13.312Z,67.04
2023-05-16T23:53:40.419Z,67.18
2023-05-16T23:56:07.863Z,67.14
2023-05-16T23:58:34.963Z,66.92
